sensor_id;sensor_type;location;lat;lon;timestamp;P1;durP1;ratioP1;P2;durP2;ratioP2
5951;SDS011;3001;42.622;23.194;2024-02-26T00:01:12;0.07;;;0.07;;
5951;SDS011;3001;42.622;23.194;2024-02-26T00:03:38;0.00;;;0.00;;
5951;SDS011;3001;42.622;23.194;2024-02-26T00:06:07;0.00;;;0.00;;
5951;SDS011;3001;42.622;23.194;2024-02-26T00:08:34;0.00;;;0.00;;
5951;SDS011;3001;42.622;23.194;2024-02-26T00:11:00;0.00;;;0.00;;
5951;SDS011;3001;42.622;23.194;2024-02-26T00:13:27;0.00;;;0.00;;
5951;SDS011;3001;42.622;23.194;2024-02-26T00:15:53;0.10;;;0.10;;
5951;SDS011;3001;42.622;23.194;2024-02-26T00:18:21;0.00;;;0.00;;
5951;SDS011;3001;42.622;23.194;2024-02-26T00:20:48;0.20;;;0.20;;
5951;SDS011;3001;42.622;23.194;2024-02-26T00:23:15;0.10;;;0.10;;
5951;SDS011;3001;42.622;23.194;2024-02-26T00:25:42;0.00;;;0.00;;
5951;SDS011;3001;42.622;23.194;2024-02-26T00:28:09;0.00;;;0.00;;
5951;SDS011;3001;42.622;23.194;2024-02-26T00:30:38;0.00;;;0.00;;
5951;SDS011;3001;42.622;23.194;2024-02-26T00:33:05;0.00;;;0.00;;
5951;SDS011;3001;42.622;23.194;2024-02-26T00:35:33;0.00;;;0.00;;
5951;SDS011;3001;42.622;23.194;2024-02-26T00:37:59;0.10;;;0.10;;
5951;SDS011;3001;42.622;23.194;2024-02-26T00:40:28;0.10;;;0.10;;
5951;SDS011;3001;42.622;23.194;2024-02-26T00:42:55;0.60;;;0.30;;
5951;SDS011;3001;42.622;23.194;2024-02-26T00:45:21;0.00;;;0.00;;
5951;SDS011;3001;42.622;23.194;2024-02-26T00:47:48;0.00;;;0.00;;
5951;SDS011;3001;42.622;23.194;2024-02-26T00:50:15;0.10;;;0.10;;
5951;SDS011;3001;42.622;23.194;2024-02-26T00:52:43;0.20;;;0.20;;
5951;SDS011;3001;42.622;23.194;2024-02-26T00:55:10;0.10;;;0.10;;
5951;SDS011;3001;42.622;23.194;2024-02-26T00:57:36;0.10;;;0.10;;
5951;SDS011;3001;42.622;23.194;2024-02-26T01:00:06;0.00;;;0.00;;
5951;SDS011;3001;42.622;23.194;2024-02-26T01:02:33;0.00;;;0.00;;
5951;SDS011;3001;42.622;23.194;2024-02-26T01:05:00;0.23;;;0.23;;
5951;SDS011;3001;42.622;23.194;2024-02-26T01:07:28;0.00;;;0.00;;
5951;SDS011;3001;42.622;23.194;2024-02-26T01:09:59;0.10;;;0.10;;
5951;SDS011;3001;42.622;23.194;2024-02-26T01:12:26;0.00;;;0.00;;
5951;SDS011;3001;42.622;23.194;2024-02-26T01:14:53;0.00;;;0.00;;
5951;SDS011;3001;42.622;23.194;2024-02-26T01:17:19;0.07;;;0.07;;
5951;SDS011;3001;42.622;23.194;2024-02-26T01:19:46;0.20;;;0.20;;
5951;SDS011;3001;42.622;23.194;2024-02-26T01:22:13;0.00;;;0.00;;
5951;SDS011;3001;42.622;23.194;2024-02-26T01:24:39;0.10;;;0.10;;
5951;SDS011;3001;42.622;23.194;2024-02-26T01:27:08;0.30;;;0.20;;
5951;SDS011;3001;42.622;23.194;2024-02-26T01:29:34;0.30;;;0.30;;
5951;SDS011;3001;42.622;23.194;2024-02-26T01:32:01;0.10;;;0.10;;
5951;SDS011;3001;42.622;23.194;2024-02-26T01:34:30;0.63;;;0.63;;
5951;SDS011;3001;42.622;23.194;2024-02-26T01:36:56;0.07;;;0.07;;
5951;SDS011;3001;42.622;23.194;2024-02-26T01:39:23;0.67;;;0.67;;
5951;SDS011;3001;42.622;23.194;2024-02-26T01:41:50;0.00;;;0.00;;
5951;SDS011;3001;42.622;23.194;2024-02-26T01:44:18;0.00;;;0.00;;
5951;SDS011;3001;42.622;23.194;2024-02-26T01:46:45;0.83;;;0.50;;
5951;SDS011;3001;42.622;23.194;2024-02-26T01:49:12;0.10;;;0.10;;
5951;SDS011;3001;42.622;23.194;2024-02-26T01:51:38;0.00;;;0.00;;
5951;SDS011;3001;42.622;23.194;2024-02-26T01:54:08;0.30;;;0.30;;
5951;SDS011;3001;42.622;23.194;2024-02-26T01:56:35;0.07;;;0.07;;
5951;SDS011;3001;42.622;23.194;2024-02-26T01:59:04;0.00;;;0.00;;
5951;SDS011;3001;42.622;23.194;2024-02-26T02:01:33;0.00;;;0.00;;
5951;SDS011;3001;42.622;23.194;2024-02-26T02:04:00;0.00;;;0.00;;
5951;SDS011;3001;42.622;23.194;2024-02-26T02:06:27;0.00;;;0.00;;
5951;SDS011;3001;42.622;23.194;2024-02-26T02:08:54;0.00;;;0.00;;
5951;SDS011;3001;42.622;23.194;2024-02-26T02:11:21;0.00;;;0.00;;
5951;SDS011;3001;42.622;23.194;2024-02-26T02:13:48;0.50;;;0.50;;
5951;SDS011;3001;42.622;23.194;2024-02-26T02:16:15;0.00;;;0.00;;
5951;SDS011;3001;42.622;23.194;2024-02-26T02:18:43;0.00;;;0.00;;
5951;SDS011;3001;42.622;23.194;2024-02-26T02:21:11;0.00;;;0.00;;
5951;SDS011;3001;42.622;23.194;2024-02-26T02:23:38;0.23;;;0.23;;
5951;SDS011;3001;42.622;23.194;2024-02-26T02:26:05;0.00;;;0.00;;
5951;SDS011;3001;42.622;23.194;2024-02-26T02:28:32;0.00;;;0.00;;
5951;SDS011;3001;42.622;23.194;2024-02-26T02:30:58;0.10;;;0.10;;
5951;SDS011;3001;42.622;23.194;2024-02-26T02:33:26;0.10;;;0.10;;
5951;SDS011;3001;42.622;23.194;2024-02-26T02:35:53;0.30;;;0.30;;
5951;SDS011;3001;42.622;23.194;2024-02-26T02:38:21;0.00;;;0.00;;
5951;SDS011;3001;42.622;23.194;2024-02-26T02:40:51;0.10;;;0.10;;
5951;SDS011;3001;42.622;23.194;2024-02-26T02:43:17;0.23;;;0.23;;
5951;SDS011;3001;42.622;23.194;2024-02-26T02:45:44;0.00;;;0.00;;
5951;SDS011;3001;42.622;23.194;2024-02-26T02:48:11;0.13;;;0.13;;
5951;SDS011;3001;42.622;23.194;2024-02-26T02:50:37;0.00;;;0.00;;
5951;SDS011;3001;42.622;23.194;2024-02-26T02:53:04;0.00;;;0.00;;
5951;SDS011;3001;42.622;23.194;2024-02-26T02:55:32;0.00;;;0.00;;
5951;SDS011;3001;42.622;23.194;2024-02-26T02:57:59;0.00;;;0.00;;
5951;SDS011;3001;42.622;23.194;2024-02-26T03:00:26;0.00;;;0.00;;
5951;SDS011;3001;42.622;23.194;2024-02-26T03:02:52;0.00;;;0.00;;
5951;SDS011;3001;42.622;23.194;2024-02-26T03:05:19;0.20;;;0.20;;
5951;SDS011;3001;42.622;23.194;2024-02-26T03:07:46;0.00;;;0.00;;
5951;SDS011;3001;42.622;23.194;2024-02-26T03:10:12;0.00;;;0.00;;
5951;SDS011;3001;42.622;23.194;2024-02-26T03:12:41;0.20;;;0.20;;
5951;SDS011;3001;42.622;23.194;2024-02-26T03:15:08;0.00;;;0.00;;
5951;SDS011;3001;42.622;23.194;2024-02-26T03:17:36;0.10;;;0.10;;
5951;SDS011;3001;42.622;23.194;2024-02-26T03:20:04;0.00;;;0.00;;
5951;SDS011;3001;42.622;23.194;2024-02-26T03:22:33;0.00;;;0.00;;
5951;SDS011;3001;42.622;23.194;2024-02-26T03:25:00;0.00;;;0.00;;
5951;SDS011;3001;42.622;23.194;2024-02-26T03:27:26;0.17;;;0.17;;
5951;SDS011;3001;42.622;23.194;2024-02-26T03:29:54;0.00;;;0.00;;
5951;SDS011;3001;42.622;23.194;2024-02-26T03:32:21;0.00;;;0.00;;
5951;SDS011;3001;42.622;23.194;2024-02-26T03:34:48;0.00;;;0.00;;
5951;SDS011;3001;42.622;23.194;2024-02-26T03:37:15;0.00;;;0.00;;
5951;SDS011;3001;42.622;23.194;2024-02-26T03:39:42;0.00;;;0.00;;
5951;SDS011;3001;42.622;23.194;2024-02-26T03:42:08;0.17;;;0.17;;
5951;SDS011;3001;42.622;23.194;2024-02-26T03:44:35;0.33;;;0.33;;
5951;SDS011;3001;42.622;23.194;2024-02-26T03:47:03;0.10;;;0.10;;
5951;SDS011;3001;42.622;23.194;2024-02-26T03:49:30;0.10;;;0.10;;
5951;SDS011;3001;42.622;23.194;2024-02-26T03:51:56;0.00;;;0.00;;
5951;SDS011;3001;42.622;23.194;2024-02-26T03:54:23;0.00;;;0.00;;
5951;SDS011;3001;42.622;23.194;2024-02-26T03:56:50;0.00;;;0.00;;
5951;SDS011;3001;42.622;23.194;2024-02-26T03:59:16;0.10;;;0.10;;
5951;SDS011;3001;42.622;23.194;2024-02-26T04:01:44;0.00;;;0.00;;
5951;SDS011;3001;42.622;23.194;2024-02-26T04:04:13;0.00;;;0.00;;
5951;SDS011;3001;42.622;23.194;2024-02-26T04:06:40;0.00;;;0.00;;
5951;SDS011;3001;42.622;23.194;2024-02-26T04:09:10;0.00;;;0.00;;
5951;SDS011;3001;42.622;23.194;2024-02-26T04:11:37;0.00;;;0.00;;
5951;SDS011;3001;42.622;23.194;2024-02-26T04:14:04;0.37;;;0.30;;
5951;SDS011;3001;42.622;23.194;2024-02-26T04:16:33;0.03;;;0.03;;
5951;SDS011;3001;42.622;23.194;2024-02-26T04:19:00;0.00;;;0.00;;
5951;SDS011;3001;42.622;23.194;2024-02-26T04:21:28;0.13;;;0.13;;
5951;SDS011;3001;42.622;23.194;2024-02-26T04:23:55;0.00;;;0.00;;
5951;SDS011;3001;42.622;23.194;2024-02-26T04:26:22;0.00;;;0.00;;
5951;SDS011;3001;42.622;23.194;2024-02-26T04:28:48;0.00;;;0.00;;
5951;SDS011;3001;42.622;23.194;2024-02-26T04:31:15;0.00;;;0.00;;
5951;SDS011;3001;42.622;23.194;2024-02-26T04:33:42;0.00;;;0.00;;
5951;SDS011;3001;42.622;23.194;2024-02-26T04:36:12;0.00;;;0.00;;
5951;SDS011;3001;42.622;23.194;2024-02-26T04:38:41;0.10;;;0.10;;
5951;SDS011;3001;42.622;23.194;2024-02-26T04:41:08;0.00;;;0.00;;
5951;SDS011;3001;42.622;23.194;2024-02-26T04:43:35;0.20;;;0.20;;
5951;SDS011;3001;42.622;23.194;2024-02-26T04:46:06;0.00;;;0.00;;
5951;SDS011;3001;42.622;23.194;2024-02-26T04:48:33;0.00;;;0.00;;
5951;SDS011;3001;42.622;23.194;2024-02-26T04:50:59;0.10;;;0.10;;
5951;SDS011;3001;42.622;23.194;2024-02-26T04:53:26;0.00;;;0.00;;
5951;SDS011;3001;42.622;23.194;2024-02-26T04:55:54;0.00;;;0.00;;
5951;SDS011;3001;42.622;23.194;2024-02-26T04:58:21;0.10;;;0.10;;
5951;SDS011;3001;42.622;23.194;2024-02-26T05:00:48;0.03;;;0.03;;
5951;SDS011;3001;42.622;23.194;2024-02-26T05:03:14;0.10;;;0.10;;
5951;SDS011;3001;42.622;23.194;2024-02-26T05:05:42;0.20;;;0.20;;
5951;SDS011;3001;42.622;23.194;2024-02-26T05:08:09;0.00;;;0.00;;
5951;SDS011;3001;42.622;23.194;2024-02-26T05:10:36;0.07;;;0.07;;
5951;SDS011;3001;42.622;23.194;2024-02-26T05:13:07;0.00;;;0.00;;
5951;SDS011;3001;42.622;23.194;2024-02-26T05:15:34;0.00;;;0.00;;
5951;SDS011;3001;42.622;23.194;2024-02-26T05:18:01;0.10;;;0.10;;
5951;SDS011;3001;42.622;23.194;2024-02-26T05:20:28;0.00;;;0.00;;
5951;SDS011;3001;42.622;23.194;2024-02-26T05:22:55;0.37;;;0.37;;
5951;SDS011;3001;42.622;23.194;2024-02-26T05:25:22;0.00;;;0.00;;
5951;SDS011;3001;42.622;23.194;2024-02-26T05:27:49;0.00;;;0.00;;
5951;SDS011;3001;42.622;23.194;2024-02-26T05:30:17;0.30;;;0.30;;
5951;SDS011;3001;42.622;23.194;2024-02-26T05:32:44;0.00;;;0.00;;
5951;SDS011;3001;42.622;23.194;2024-02-26T05:35:11;0.37;;;0.37;;
5951;SDS011;3001;42.622;23.194;2024-02-26T05:37:37;0.33;;;0.33;;
5951;SDS011;3001;42.622;23.194;2024-02-26T05:40:05;0.40;;;0.40;;
5951;SDS011;3001;42.622;23.194;2024-02-26T05:42:32;0.43;;;0.43;;
5951;SDS011;3001;42.622;23.194;2024-02-26T05:44:59;0.73;;;0.47;;
5951;SDS011;3001;42.622;23.194;2024-02-26T05:47:32;0.10;;;0.10;;
5951;SDS011;3001;42.622;23.194;2024-02-26T05:49:59;0.00;;;0.00;;
5951;SDS011;3001;42.622;23.194;2024-02-26T05:52:26;0.60;;;0.60;;
5951;SDS011;3001;42.622;23.194;2024-02-26T05:54:52;1.80;;;1.07;;
5951;SDS011;3001;42.622;23.194;2024-02-26T05:57:19;0.30;;;0.30;;
5951;SDS011;3001;42.622;23.194;2024-02-26T05:59:46;0.47;;;0.47;;
5951;SDS011;3001;42.622;23.194;2024-02-26T06:02:13;0.63;;;0.63;;
5951;SDS011;3001;42.622;23.194;2024-02-26T06:04:41;0.63;;;0.63;;
5951;SDS011;3001;42.622;23.194;2024-02-26T06:07:07;0.20;;;0.20;;
5951;SDS011;3001;42.622;23.194;2024-02-26T06:09:34;0.50;;;0.50;;
5951;SDS011;3001;42.622;23.194;2024-02-26T06:12:01;0.60;;;0.60;;
5951;SDS011;3001;42.622;23.194;2024-02-26T06:14:27;0.77;;;0.20;;
5951;SDS011;3001;42.622;23.194;2024-02-26T06:16:54;7.93;;;0.67;;
5951;SDS011;3001;42.622;23.194;2024-02-26T06:19:21;0.30;;;0.30;;
5951;SDS011;3001;42.622;23.194;2024-02-26T06:21:49;0.30;;;0.30;;
5951;SDS011;3001;42.622;23.194;2024-02-26T06:24:16;0.97;;;0.97;;
5951;SDS011;3001;42.622;23.194;2024-02-26T06:26:42;0.33;;;0.33;;
5951;SDS011;3001;42.622;23.194;2024-02-26T06:29:09;0.60;;;0.60;;
5951;SDS011;3001;42.622;23.194;2024-02-26T06:31:36;1.20;;;1.20;;
5951;SDS011;3001;42.622;23.194;2024-02-26T06:34:03;0.70;;;0.70;;
5951;SDS011;3001;42.622;23.194;2024-02-26T06:36:30;0.60;;;0.60;;
5951;SDS011;3001;42.622;23.194;2024-02-26T06:38:59;2.53;;;1.53;;
5951;SDS011;3001;42.622;23.194;2024-02-26T06:41:26;1.13;;;0.80;;
5951;SDS011;3001;42.622;23.194;2024-02-26T06:43:54;0.47;;;0.47;;
5951;SDS011;3001;42.622;23.194;2024-02-26T06:46:21;0.47;;;0.47;;
5951;SDS011;3001;42.622;23.194;2024-02-26T06:48:48;0.30;;;0.30;;
5951;SDS011;3001;42.622;23.194;2024-02-26T06:51:15;0.40;;;0.40;;
5951;SDS011;3001;42.622;23.194;2024-02-26T06:53:42;0.47;;;0.47;;
5951;SDS011;3001;42.622;23.194;2024-02-26T06:56:10;1.07;;;1.07;;
5951;SDS011;3001;42.622;23.194;2024-02-26T06:58:36;0.40;;;0.40;;
5951;SDS011;3001;42.622;23.194;2024-02-26T07:01:03;0.30;;;0.30;;
5951;SDS011;3001;42.622;23.194;2024-02-26T07:03:30;0.77;;;0.30;;
5951;SDS011;3001;42.622;23.194;2024-02-26T07:05:58;0.90;;;0.90;;
5951;SDS011;3001;42.622;23.194;2024-02-26T07:08:24;0.73;;;0.73;;
5951;SDS011;3001;42.622;23.194;2024-02-26T07:10:51;0.30;;;0.30;;
5951;SDS011;3001;42.622;23.194;2024-02-26T07:13:19;0.47;;;0.47;;
5951;SDS011;3001;42.622;23.194;2024-02-26T07:15:46;0.93;;;0.93;;
5951;SDS011;3001;42.622;23.194;2024-02-26T07:18:12;0.40;;;0.40;;
5951;SDS011;3001;42.622;23.194;2024-02-26T07:20:39;1.40;;;1.03;;
5951;SDS011;3001;42.622;23.194;2024-02-26T07:23:06;0.93;;;0.90;;
5951;SDS011;3001;42.622;23.194;2024-02-26T07:25:32;2.40;;;0.90;;
5951;SDS011;3001;42.622;23.194;2024-02-26T07:27:59;0.50;;;0.50;;
5951;SDS011;3001;42.622;23.194;2024-02-26T07:30:27;0.23;;;0.23;;
5951;SDS011;3001;42.622;23.194;2024-02-26T07:32:54;1.03;;;1.03;;
5951;SDS011;3001;42.622;23.194;2024-02-26T07:35:21;0.90;;;0.90;;
5951;SDS011;3001;42.622;23.194;2024-02-26T07:37:48;0.70;;;0.70;;
5951;SDS011;3001;42.622;23.194;2024-02-26T07:40:16;1.20;;;1.10;;
5951;SDS011;3001;42.622;23.194;2024-02-26T07:42:42;1.70;;;1.60;;
5951;SDS011;3001;42.622;23.194;2024-02-26T07:45:09;0.37;;;0.37;;
5951;SDS011;3001;42.622;23.194;2024-02-26T07:47:37;2.27;;;1.53;;
5951;SDS011;3001;42.622;23.194;2024-02-26T07:50:06;0.73;;;0.73;;
5951;SDS011;3001;42.622;23.194;2024-02-26T07:52:33;1.50;;;1.50;;
5951;SDS011;3001;42.622;23.194;2024-02-26T07:55:00;0.37;;;0.37;;
5951;SDS011;3001;42.622;23.194;2024-02-26T07:57:27;0.40;;;0.40;;
5951;SDS011;3001;42.622;23.194;2024-02-26T07:59:53;1.30;;;1.30;;
5951;SDS011;3001;42.622;23.194;2024-02-26T08:02:20;1.13;;;1.13;;
5951;SDS011;3001;42.622;23.194;2024-02-26T08:04:49;0.97;;;0.97;;
5951;SDS011;3001;42.622;23.194;2024-02-26T08:07:16;0.73;;;0.73;;
5951;SDS011;3001;42.622;23.194;2024-02-26T08:09:43;0.50;;;0.50;;
5951;SDS011;3001;42.622;23.194;2024-02-26T08:12:09;0.30;;;0.30;;
5951;SDS011;3001;42.622;23.194;2024-02-26T08:14:36;1.13;;;1.13;;
5951;SDS011;3001;42.622;23.194;2024-02-26T08:17:03;0.83;;;0.60;;
5951;SDS011;3001;42.622;23.194;2024-02-26T08:19:29;0.73;;;0.73;;
5951;SDS011;3001;42.622;23.194;2024-02-26T08:21:58;0.97;;;0.97;;
5951;SDS011;3001;42.622;23.194;2024-02-26T08:24:24;0.30;;;0.30;;
5951;SDS011;3001;42.622;23.194;2024-02-26T08:26:51;1.07;;;1.07;;
5951;SDS011;3001;42.622;23.194;2024-02-26T08:29:17;1.20;;;1.20;;
5951;SDS011;3001;42.622;23.194;2024-02-26T08:31:44;1.23;;;1.17;;
5951;SDS011;3001;42.622;23.194;2024-02-26T08:34:11;0.10;;;0.10;;
5951;SDS011;3001;42.622;23.194;2024-02-26T08:36:37;0.40;;;0.40;;
5951;SDS011;3001;42.622;23.194;2024-02-26T08:39:05;0.93;;;0.93;;
5951;SDS011;3001;42.622;23.194;2024-02-26T08:41:34;0.60;;;0.60;;
5951;SDS011;3001;42.622;23.194;2024-02-26T08:44:00;0.97;;;0.93;;
5951;SDS011;3001;42.622;23.194;2024-02-26T08:46:27;0.70;;;0.70;;
5951;SDS011;3001;42.622;23.194;2024-02-26T08:48:54;0.77;;;0.77;;
5951;SDS011;3001;42.622;23.194;2024-02-26T08:51:20;0.50;;;0.50;;
5951;SDS011;3001;42.622;23.194;2024-02-26T08:53:47;2.20;;;1.70;;
5951;SDS011;3001;42.622;23.194;2024-02-26T08:56:16;1.13;;;1.13;;
5951;SDS011;3001;42.622;23.194;2024-02-26T08:58:43;0.77;;;0.77;;
5951;SDS011;3001;42.622;23.194;2024-02-26T09:01:11;1.77;;;1.73;;
5951;SDS011;3001;42.622;23.194;2024-02-26T09:03:38;0.83;;;0.83;;
5951;SDS011;3001;42.622;23.194;2024-02-26T09:06:05;1.07;;;1.07;;
5951;SDS011;3001;42.622;23.194;2024-02-26T09:08:32;0.80;;;0.80;;
5951;SDS011;3001;42.622;23.194;2024-02-26T09:11:01;0.70;;;0.70;;
5951;SDS011;3001;42.622;23.194;2024-02-26T09:13:29;0.93;;;0.93;;
5951;SDS011;3001;42.622;23.194;2024-02-26T09:15:56;1.33;;;1.33;;
5951;SDS011;3001;42.622;23.194;2024-02-26T09:18:24;0.87;;;0.87;;
5951;SDS011;3001;42.622;23.194;2024-02-26T09:20:50;0.83;;;0.83;;
5951;SDS011;3001;42.622;23.194;2024-02-26T09:23:17;0.50;;;0.50;;
5951;SDS011;3001;42.622;23.194;2024-02-26T09:25:44;0.93;;;0.93;;
5951;SDS011;3001;42.622;23.194;2024-02-26T09:28:10;0.33;;;0.33;;
5951;SDS011;3001;42.622;23.194;2024-02-26T09:30:38;0.37;;;0.37;;
5951;SDS011;3001;42.622;23.194;2024-02-26T09:33:05;0.93;;;0.77;;
5951;SDS011;3001;42.622;23.194;2024-02-26T09:35:32;1.13;;;1.03;;
5951;SDS011;3001;42.622;23.194;2024-02-26T09:37:59;0.60;;;0.60;;
5951;SDS011;3001;42.622;23.194;2024-02-26T09:40:26;0.73;;;0.73;;
5951;SDS011;3001;42.622;23.194;2024-02-26T09:42:53;0.73;;;0.73;;
5951;SDS011;3001;42.622;23.194;2024-02-26T09:45:26;1.17;;;1.07;;
5951;SDS011;3001;42.622;23.194;2024-02-26T09:47:56;0.80;;;0.80;;
5951;SDS011;3001;42.622;23.194;2024-02-26T09:50:23;0.67;;;0.67;;
5951;SDS011;3001;42.622;23.194;2024-02-26T09:52:50;0.73;;;0.73;;
5951;SDS011;3001;42.622;23.194;2024-02-26T09:55:17;1.47;;;1.03;;
5951;SDS011;3001;42.622;23.194;2024-02-26T09:57:45;1.00;;;1.00;;
5951;SDS011;3001;42.622;23.194;2024-02-26T10:00:14;0.70;;;0.70;;
5951;SDS011;3001;42.622;23.194;2024-02-26T10:02:45;1.10;;;1.10;;
5951;SDS011;3001;42.622;23.194;2024-02-26T10:05:14;2.03;;;1.80;;
5951;SDS011;3001;42.622;23.194;2024-02-26T10:07:42;1.07;;;1.07;;
5951;SDS011;3001;42.622;23.194;2024-02-26T10:10:10;1.00;;;1.00;;
5951;SDS011;3001;42.622;23.194;2024-02-26T10:12:37;1.73;;;0.73;;
5951;SDS011;3001;42.622;23.194;2024-02-26T10:15:04;1.00;;;1.00;;
5951;SDS011;3001;42.622;23.194;2024-02-26T10:17:31;0.80;;;0.80;;
5951;SDS011;3001;42.622;23.194;2024-02-26T10:20:10;0.83;;;0.83;;
5951;SDS011;3001;42.622;23.194;2024-02-26T10:22:39;0.80;;;0.80;;
5951;SDS011;3001;42.622;23.194;2024-02-26T10:25:07;0.60;;;0.60;;
5951;SDS011;3001;42.622;23.194;2024-02-26T10:27:34;0.43;;;0.43;;
5951;SDS011;3001;42.622;23.194;2024-02-26T10:30:02;0.83;;;0.83;;
5951;SDS011;3001;42.622;23.194;2024-02-26T10:32:30;0.40;;;0.40;;
5951;SDS011;3001;42.622;23.194;2024-02-26T10:34:56;0.50;;;0.50;;
5951;SDS011;3001;42.622;23.194;2024-02-26T10:37:23;0.10;;;0.10;;
5951;SDS011;3001;42.622;23.194;2024-02-26T10:39:51;0.10;;;0.10;;
5951;SDS011;3001;42.622;23.194;2024-02-26T10:42:18;0.43;;;0.43;;
5951;SDS011;3001;42.622;23.194;2024-02-26T10:44:44;0.40;;;0.40;;
5951;SDS011;3001;42.622;23.194;2024-02-26T10:47:13;0.10;;;0.10;;
5951;SDS011;3001;42.622;23.194;2024-02-26T10:49:44;0.60;;;0.60;;
5951;SDS011;3001;42.622;23.194;2024-02-26T10:52:12;0.27;;;0.27;;
5951;SDS011;3001;42.622;23.194;2024-02-26T10:54:41;0.33;;;0.33;;
5951;SDS011;3001;42.622;23.194;2024-02-26T10:57:11;0.60;;;0.30;;
5951;SDS011;3001;42.622;23.194;2024-02-26T10:59:37;0.30;;;0.30;;
5951;SDS011;3001;42.622;23.194;2024-02-26T11:02:06;0.70;;;0.70;;
5951;SDS011;3001;42.622;23.194;2024-02-26T11:04:36;0.20;;;0.20;;
5951;SDS011;3001;42.622;23.194;2024-02-26T11:07:03;0.97;;;0.80;;
5951;SDS011;3001;42.622;23.194;2024-02-26T11:09:31;0.20;;;0.20;;
5951;SDS011;3001;42.622;23.194;2024-02-26T11:11:58;0.40;;;0.40;;
5951;SDS011;3001;42.622;23.194;2024-02-26T11:14:27;0.40;;;0.40;;
5951;SDS011;3001;42.622;23.194;2024-02-26T11:16:56;0.13;;;0.13;;
5951;SDS011;3001;42.622;23.194;2024-02-26T11:19:24;0.20;;;0.20;;
5951;SDS011;3001;42.622;23.194;2024-02-26T11:21:52;0.30;;;0.30;;
5951;SDS011;3001;42.622;23.194;2024-02-26T11:24:19;0.97;;;0.57;;
5951;SDS011;3001;42.622;23.194;2024-02-26T11:26:46;0.50;;;0.50;;
5951;SDS011;3001;42.622;23.194;2024-02-26T11:29:23;1.03;;;1.03;;
5951;SDS011;3001;42.622;23.194;2024-02-26T11:31:54;0.20;;;0.20;;
5951;SDS011;3001;42.622;23.194;2024-02-26T11:34:21;0.10;;;0.10;;
5951;SDS011;3001;42.622;23.194;2024-02-26T11:36:48;0.63;;;0.63;;
5951;SDS011;3001;42.622;23.194;2024-02-26T11:39:15;0.20;;;0.20;;
5951;SDS011;3001;42.622;23.194;2024-02-26T11:41:42;0.33;;;0.33;;
5951;SDS011;3001;42.622;23.194;2024-02-26T11:44:09;0.30;;;0.30;;
5951;SDS011;3001;42.622;23.194;2024-02-26T11:46:39;0.30;;;0.20;;
5951;SDS011;3001;42.622;23.194;2024-02-26T11:51:58;0.53;;;0.53;;
5951;SDS011;3001;42.622;23.194;2024-02-26T11:57:29;0.10;;;0.10;;
5951;SDS011;3001;42.622;23.194;2024-02-26T12:00:10;0.53;;;0.53;;
5951;SDS011;3001;42.622;23.194;2024-02-26T12:02:40;0.47;;;0.30;;
5951;SDS011;3001;42.622;23.194;2024-02-26T12:05:11;0.77;;;0.77;;
5951;SDS011;3001;42.622;23.194;2024-02-26T12:07:39;0.70;;;0.50;;
5951;SDS011;3001;42.622;23.194;2024-02-26T12:10:14;0.40;;;0.40;;
5951;SDS011;3001;42.622;23.194;2024-02-26T12:12:43;0.97;;;0.97;;
5951;SDS011;3001;42.622;23.194;2024-02-26T12:15:11;1.80;;;0.77;;
5951;SDS011;3001;42.622;23.194;2024-02-26T12:17:38;0.53;;;0.53;;
5951;SDS011;3001;42.622;23.194;2024-02-26T12:20:09;0.27;;;0.27;;
5951;SDS011;3001;42.622;23.194;2024-02-26T12:22:37;0.80;;;0.80;;
5951;SDS011;3001;42.622;23.194;2024-02-26T12:25:08;1.07;;;0.83;;
5951;SDS011;3001;42.622;23.194;2024-02-26T12:27:35;0.63;;;0.63;;
5951;SDS011;3001;42.622;23.194;2024-02-26T12:30:02;0.67;;;0.67;;
5951;SDS011;3001;42.622;23.194;2024-02-26T12:32:29;0.77;;;0.47;;
5951;SDS011;3001;42.622;23.194;2024-02-26T12:34:56;0.30;;;0.30;;
5951;SDS011;3001;42.622;23.194;2024-02-26T12:37:25;0.13;;;0.13;;
5951;SDS011;3001;42.622;23.194;2024-02-26T12:39:52;0.30;;;0.30;;
5951;SDS011;3001;42.622;23.194;2024-02-26T12:42:18;0.33;;;0.33;;
5951;SDS011;3001;42.622;23.194;2024-02-26T12:44:45;0.30;;;0.30;;
5951;SDS011;3001;42.622;23.194;2024-02-26T12:47:12;0.30;;;0.30;;
5951;SDS011;3001;42.622;23.194;2024-02-26T12:49:42;1.13;;;0.77;;
5951;SDS011;3001;42.622;23.194;2024-02-26T12:52:09;0.50;;;0.50;;
5951;SDS011;3001;42.622;23.194;2024-02-26T12:54:38;0.40;;;0.40;;
5951;SDS011;3001;42.622;23.194;2024-02-26T12:57:06;0.10;;;0.10;;
5951;SDS011;3001;42.622;23.194;2024-02-26T12:59:35;0.40;;;0.40;;
5951;SDS011;3001;42.622;23.194;2024-02-26T13:02:02;0.20;;;0.20;;
5951;SDS011;3001;42.622;23.194;2024-02-26T13:04:30;1.93;;;1.83;;
5951;SDS011;3001;42.622;23.194;2024-02-26T13:06:57;1.03;;;0.93;;
5951;SDS011;3001;42.622;23.194;2024-02-26T13:09:28;0.10;;;0.10;;
5951;SDS011;3001;42.622;23.194;2024-02-26T13:12:03;0.20;;;0.20;;
5951;SDS011;3001;42.622;23.194;2024-02-26T13:14:30;0.73;;;0.73;;
5951;SDS011;3001;42.622;23.194;2024-02-26T13:16:59;0.30;;;0.30;;
5951;SDS011;3001;42.622;23.194;2024-02-26T13:19:26;0.53;;;0.53;;
5951;SDS011;3001;42.622;23.194;2024-02-26T13:21:54;0.27;;;0.27;;
5951;SDS011;3001;42.622;23.194;2024-02-26T13:24:20;0.30;;;0.30;;
5951;SDS011;3001;42.622;23.194;2024-02-26T13:26:53;0.30;;;0.30;;
5951;SDS011;3001;42.622;23.194;2024-02-26T13:29:21;0.53;;;0.53;;
5951;SDS011;3001;42.622;23.194;2024-02-26T13:31:53;0.50;;;0.50;;
5951;SDS011;3001;42.622;23.194;2024-02-26T13:34:24;0.33;;;0.33;;
5951;SDS011;3001;42.622;23.194;2024-02-26T13:36:52;0.50;;;0.50;;
5951;SDS011;3001;42.622;23.194;2024-02-26T13:39:22;2.43;;;0.73;;
5951;SDS011;3001;42.622;23.194;2024-02-26T13:41:49;0.27;;;0.27;;
5951;SDS011;3001;42.622;23.194;2024-02-26T13:44:16;0.67;;;0.67;;
5951;SDS011;3001;42.622;23.194;2024-02-26T13:46:44;0.67;;;0.67;;
5951;SDS011;3001;42.622;23.194;2024-02-26T13:49:11;0.70;;;0.70;;
5951;SDS011;3001;42.622;23.194;2024-02-26T13:51:37;0.10;;;0.10;;
5951;SDS011;3001;42.622;23.194;2024-02-26T13:54:04;0.20;;;0.20;;
5951;SDS011;3001;42.622;23.194;2024-02-26T13:56:31;0.23;;;0.23;;
5951;SDS011;3001;42.622;23.194;2024-02-26T13:58:58;0.50;;;0.50;;
5951;SDS011;3001;42.622;23.194;2024-02-26T14:01:25;0.20;;;0.20;;
5951;SDS011;3001;42.622;23.194;2024-02-26T14:03:53;0.43;;;0.43;;
5951;SDS011;3001;42.622;23.194;2024-02-26T14:06:22;0.70;;;0.70;;
5951;SDS011;3001;42.622;23.194;2024-02-26T14:08:49;1.10;;;1.10;;
5951;SDS011;3001;42.622;23.194;2024-02-26T14:11:16;4.53;;;2.37;;
5951;SDS011;3001;42.622;23.194;2024-02-26T14:13:42;1.90;;;1.80;;
5951;SDS011;3001;42.622;23.194;2024-02-26T14:16:11;1.03;;;0.80;;
5951;SDS011;3001;42.622;23.194;2024-02-26T14:18:38;0.30;;;0.30;;
5951;SDS011;3001;42.622;23.194;2024-02-26T14:21:07;0.50;;;0.50;;
5951;SDS011;3001;42.622;23.194;2024-02-26T14:23:33;0.20;;;0.20;;
5951;SDS011;3001;42.622;23.194;2024-02-26T14:26:01;0.67;;;0.63;;
5951;SDS011;3001;42.622;23.194;2024-02-26T14:28:28;0.67;;;0.50;;
5951;SDS011;3001;42.622;23.194;2024-02-26T14:30:57;0.40;;;0.37;;
5951;SDS011;3001;42.622;23.194;2024-02-26T14:33:23;0.40;;;0.40;;
5951;SDS011;3001;42.622;23.194;2024-02-26T14:35:50;0.30;;;0.30;;
5951;SDS011;3001;42.622;23.194;2024-02-26T14:38:18;0.33;;;0.33;;
5951;SDS011;3001;42.622;23.194;2024-02-26T14:40:44;0.80;;;0.80;;
5951;SDS011;3001;42.622;23.194;2024-02-26T14:43:11;2.17;;;1.93;;
5951;SDS011;3001;42.622;23.194;2024-02-26T14:45:38;1.90;;;1.87;;
5951;SDS011;3001;42.622;23.194;2024-02-26T14:48:05;0.70;;;0.70;;
5951;SDS011;3001;42.622;23.194;2024-02-26T14:50:33;1.03;;;0.93;;
5951;SDS011;3001;42.622;23.194;2024-02-26T14:53:00;0.90;;;0.90;;
5951;SDS011;3001;42.622;23.194;2024-02-26T14:55:28;0.57;;;0.57;;
5951;SDS011;3001;42.622;23.194;2024-02-26T14:57:55;0.60;;;0.60;;
5951;SDS011;3001;42.622;23.194;2024-02-26T15:00:22;0.40;;;0.40;;
5951;SDS011;3001;42.622;23.194;2024-02-26T15:02:48;0.37;;;0.37;;
5951;SDS011;3001;42.622;23.194;2024-02-26T15:05:17;0.87;;;0.60;;
5951;SDS011;3001;42.622;23.194;2024-02-26T15:07:44;1.50;;;0.67;;